createdAt,value
2023-02-20T00:01:27.036Z,99.90
2023-02-20T00:03:56.295Z,99.90
2023-02-20T00:06:24.264Z,99.90
2023-02-20T00:08:52.417Z,99.90
2023-02-20T00:11:20.546Z,99.90
2023-02-20T00:13:49.589Z,99.90
2023-02-20T00:16:17.615Z,99.90
2023-02-20T00:18:45.944Z,99.90
2023-02-20T00:21:15.200Z,99.90
2023-02-20T00:23:43.085Z,99.90
2023-02-20T00:26:12.326Z,99.90
2023-02-20T00:28:41.788Z,99.90
2023-02-20T00:31:15.042Z,99.90
2023-02-20T00:33:43.668Z,99.90
2023-02-20T00:36:18.135Z,99.90
2023-02-20T00:38:46.570Z,99.90
2023-02-20T00:41:15.601Z,99.90
2023-02-20T00:43:45.133Z,99.90
2023-02-20T00:46:14.320Z,99.90
2023-02-20T00:48:43.432Z,99.90
2023-02-20T00:51:32.192Z,99.90
2023-02-20T00:54:00.175Z,99.90
2023-02-20T00:56:28.170Z,99.90
2023-02-20T00:58:57.740Z,99.90
2023-02-20T01:01:27.158Z,99.90
2023-02-20T01:03:55.334Z,99.90
2023-02-20T01:06:23.289Z,99.90
2023-02-20T01:08:53.332Z,99.90
2023-02-20T01:11:22.564Z,99.90
2023-02-20T01:13:50.518Z,99.90
2023-02-20T01:16:18.868Z,99.90
2023-02-20T01:18:50.796Z,99.90
2023-02-20T01:21:19.305Z,99.90
2023-02-20T01:23:47.321Z,99.90
2023-02-20T01:26:16.605Z,99.90
2023-02-20T01:28:46.109Z,99.90
2023-02-20T01:31:14.185Z,99.90
2023-02-20T01:33:42.990Z,99.90
2023-02-20T01:36:12.891Z,99.90
2023-02-20T01:38:41.749Z,99.90
2023-02-20T01:41:10.460Z,99.90
2023-02-20T01:43:39.797Z,99.90
2023-02-20T01:46:51.845Z,99.90
2023-02-20T01:49:26.289Z,99.90
2023-02-20T01:51:58.307Z,99.90
2023-02-20T01:54:29.072Z,99.90
2023-02-20T01:56:59.788Z,99.90
2023-02-20T01:59:31.139Z,99.90
2023-02-20T02:01:59.569Z,99.90
2023-02-20T02:04:28.594Z,99.90
2023-02-20T02:06:56.991Z,99.90
2023-02-20T02:09:39.139Z,99.90
2023-02-20T02:12:08.593Z,99.90
2023-02-20T02:14:38.890Z,99.90
2023-02-20T02:17:26.782Z,99.90
2023-02-20T02:20:27.146Z,99.90
2023-02-20T02:23:29.004Z,99.90
2023-02-20T02:26:00.981Z,99.90
2023-02-20T02:29:14.076Z,99.90
2023-02-20T02:32:20.360Z,99.90
2023-02-20T02:35:16.556Z,99.90
2023-02-20T02:37:50.775Z,99.90
2023-02-20T02:40:27.177Z,99.90
2023-02-20T02:43:02.217Z,99.90
2023-02-20T02:45:36.129Z,99.90
2023-02-20T02:48:12.499Z,99.90
2023-02-20T02:50:44.447Z,99.90
2023-02-20T02:53:15.083Z,99.90
2023-02-20T02:55:43.116Z,99.90
2023-02-20T02:58:12.463Z,99.90
2023-02-20T03:00:43.361Z,99.90
2023-02-20T03:03:17.065Z,99.90
2023-02-20T03:05:50.449Z,99.90
2023-02-20T03:08:31.772Z,99.90
2023-02-20T03:11:05.244Z,99.90
2023-02-20T03:13:56.134Z,99.90
2023-02-20T03:16:28.584Z,99.90
2023-02-20T03:19:01.599Z,99.90
2023-02-20T03:21:31.801Z,99.90
2023-02-20T03:24:04.264Z,99.90
2023-02-20T03:26:35.416Z,99.90
2023-02-20T03:29:10.257Z,99.90
2023-02-20T03:31:42.971Z,99.90
2023-02-20T03:34:33.009Z,99.90
2023-02-20T03:37:23.570Z,99.90
2023-02-20T03:40:13.518Z,99.90
2023-02-20T03:43:02.962Z,99.90
2023-02-20T03:45:38.287Z,99.90
2023-02-20T03:48:12.935Z,99.90
2023-02-20T03:50:58.156Z,99.90
2023-02-20T03:53:30.687Z,99.90
2023-02-20T03:56:04.655Z,99.90
2023-02-20T03:58:37.796Z,99.90
2023-02-20T04:01:07.809Z,99.90
2023-02-20T04:03:40.048Z,99.90
2023-02-20T04:06:11.155Z,99.90
2023-02-20T04:08:44.464Z,99.90
2023-02-20T04:11:20.403Z,99.90
2023-02-20T04:13:50.301Z,99.90
2023-02-20T04:16:18.887Z,99.90
2023-02-20T04:18:47.255Z,99.90
2023-02-20T04:21:21.510Z,99.90
2023-02-20T04:23:53.477Z,99.90
2023-02-20T04:26:24.426Z,99.90
2023-02-20T04:28:53.155Z,99.90
2023-02-20T04:31:22.666Z,99.90
2023-02-20T04:33:51.723Z,99.90
2023-02-20T04:36:23.165Z,99.90
2023-02-20T04:38:52.677Z,99.90
2023-02-20T04:41:26.565Z,99.90
2023-02-20T04:44:15.098Z,99.90
2023-02-20T04:47:04.390Z,99.90
2023-02-20T04:49:32.937Z,99.90
2023-02-20T04:52:03.249Z,99.90
2023-02-20T04:54:31.217Z,99.90
2023-02-20T04:57:00.919Z,99.90
2023-02-20T04:59:28.865Z,99.90
2023-02-20T05:01:56.959Z,99.90
2023-02-20T05:04:24.915Z,99.90
2023-02-20T05:06:54.367Z,99.90
2023-02-20T05:09:22.710Z,99.90
2023-02-20T05:11:50.978Z,99.90
2023-02-20T05:14:21.206Z,99.90
2023-02-20T05:16:51.161Z,99.90
2023-02-20T05:19:19.731Z,99.90
2023-02-20T05:22:06.300Z,99.90
2023-02-20T05:24:34.570Z,99.90
2023-02-20T05:27:02.566Z,99.90
2023-02-20T05:29:31.806Z,99.90
2023-02-20T05:31:59.752Z,99.90
2023-02-20T05:34:27.622Z,99.90
2023-02-20T05:36:57.207Z,99.90
2023-02-20T05:39:25.178Z,99.90
2023-02-20T05:41:53.187Z,99.90
2023-02-20T05:44:21.119Z,99.90
2023-02-20T05:46:50.416Z,99.90
2023-02-20T05:49:19.003Z,99.90
2023-02-20T05:51:47.059Z,99.90
2023-02-20T05:54:15.011Z,99.90
2023-02-20T05:56:43.215Z,99.90
2023-02-20T05:59:11.423Z,99.90
2023-02-20T06:01:39.632Z,99.90
2023-02-20T06:04:09.070Z,99.90
2023-02-20T06:06:38.543Z,99.90
2023-02-20T06:09:08.482Z,99.90
2023-02-20T06:11:36.462Z,99.90
2023-02-20T06:14:05.032Z,99.90
2023-02-20T06:16:33.082Z,99.90
2023-02-20T06:19:01.365Z,99.90
2023-02-20T06:21:30.592Z,99.90
2023-02-20T06:23:58.507Z,99.90
2023-02-20T06:26:26.501Z,99.90
2023-02-20T06:28:54.689Z,99.90
2023-02-20T06:31:24.480Z,99.90
2023-02-20T06:33:52.578Z,99.90
2023-02-20T06:36:23.322Z,99.90
2023-02-20T06:38:53.151Z,99.90
2023-02-20T06:41:21.093Z,99.90
2023-02-20T06:43:49.102Z,99.90
2023-02-20T06:46:17.080Z,99.90
2023-02-20T06:48:46.335Z,99.90
2023-02-20T06:51:16.874Z,99.90
2023-02-20T06:53:44.751Z,99.90
2023-02-20T06:56:18.575Z,99.90
2023-02-20T06:58:47.483Z,99.90
2023-02-20T07:01:15.488Z,99.90
2023-02-20T07:03:44.929Z,99.90
2023-02-20T07:06:13.141Z,99.90
2023-02-20T07:08:41.210Z,99.90
2023-02-20T07:11:09.386Z,99.90
2023-02-20T07:13:38.726Z,99.90
2023-02-20T07:16:07.243Z,99.90
2023-02-20T07:18:35.242Z,99.90
2023-02-20T07:21:03.275Z,99.90
2023-02-20T07:23:31.214Z,99.90
2023-02-20T07:25:59.280Z,99.90
2023-02-20T07:28:27.214Z,99.90
2023-02-20T07:30:56.583Z,99.90
2023-02-20T07:33:24.475Z,99.90
2023-02-20T07:35:52.392Z,99.90
2023-02-20T07:38:20.521Z,99.90
2023-02-20T07:40:51.828Z,99.90
2023-02-20T07:43:20.970Z,99.90
2023-02-20T07:45:52.243Z,99.90
2023-02-20T07:48:22.014Z,99.90
2023-02-20T07:50:50.784Z,99.90
2023-02-20T07:53:20.756Z,99.90
2023-02-20T07:55:49.014Z,99.90
2023-02-20T07:58:17.359Z,99.90
2023-02-20T08:00:46.068Z,99.90
2023-02-20T08:03:14.334Z,99.90
2023-02-20T08:05:49.706Z,99.90
2023-02-20T08:08:18.874Z,99.90
2023-02-20T08:10:49.066Z,99.90
2023-02-20T08:13:17.661Z,99.90
2023-02-20T08:15:48.073Z,99.90
2023-02-20T08:18:23.539Z,99.90
2023-02-20T08:20:54.321Z,99.90
2023-02-20T08:23:26.232Z,99.90
2023-02-20T08:25:54.706Z,99.90
2023-02-20T08:28:23.372Z,99.90
2023-02-20T08:30:52.383Z,99.90
2023-02-20T08:33:20.792Z,99.90
2023-02-20T08:35:51.660Z,99.90
2023-02-20T08:38:28.562Z,99.90
2023-02-20T08:40:57.793Z,99.90
2023-02-20T08:43:28.051Z,99.90
2023-02-20T08:45:57.468Z,99.90
2023-02-20T08:48:25.674Z,99.90
2023-02-20T08:50:54.334Z,99.90
2023-02-20T08:53:24.209Z,99.90
2023-02-20T08:55:55.497Z,99.90
2023-02-20T08:58:26.187Z,99.90
2023-02-20T09:00:54.787Z,99.90
2023-02-20T09:03:29.616Z,99.90
2023-02-20T09:05:57.608Z,99.90
2023-02-20T09:08:26.848Z,99.90
2023-02-20T09:10:54.844Z,99.90
2023-02-20T09:13:23.099Z,99.90
2023-02-20T09:15:51.025Z,99.90
2023-02-20T09:18:18.962Z,99.90
2023-02-20T09:20:48.205Z,99.90
2023-02-20T09:23:16.092Z,99.90
2023-02-20T09:25:45.296Z,99.90
2023-02-20T09:28:13.338Z,99.90
2023-02-20T09:30:41.349Z,99.90
2023-02-20T09:33:09.668Z,99.90
2023-02-20T09:35:37.586Z,99.90
2023-02-20T09:38:07.617Z,99.90
2023-02-20T09:40:35.800Z,99.90
2023-02-20T09:43:21.949Z,99.90
2023-02-20T09:45:58.793Z,99.90
2023-02-20T09:48:44.102Z,99.90
2023-02-20T09:51:15.497Z,99.90
2023-02-20T09:53:53.566Z,99.90
2023-02-20T09:56:24.967Z,99.90
2023-02-20T09:59:00.250Z,99.90
2023-02-20T10:01:30.437Z,99.90
2023-02-20T10:04:01.246Z,99.90
2023-02-20T10:06:32.226Z,99.90
2023-02-20T10:09:02.141Z,99.90
2023-02-20T10:11:50.857Z,99.90
2023-02-20T10:14:35.530Z,99.90
2023-02-20T10:17:14.178Z,99.90
2023-02-20T10:19:50.706Z,99.90
2023-02-20T10:22:23.313Z,99.90
2023-02-20T10:25:03.607Z,99.90
2023-02-20T10:27:39.637Z,99.90
2023-02-20T10:30:13.283Z,99.90
2023-02-20T10:32:47.161Z,99.90
2023-02-20T10:35:19.485Z,99.90
2023-02-20T10:37:52.789Z,99.90
2023-02-20T10:40:25.525Z,99.90
2023-02-20T10:43:01.853Z,99.90
2023-02-20T10:45:37.410Z,99.90
2023-02-20T10:48:08.616Z,99.90
2023-02-20T10:50:42.961Z,99.30
2023-02-20T10:53:19.585Z,99.10
2023-02-20T10:55:53.940Z,98.80
2023-02-20T10:58:27.696Z,98.90
2023-02-20T11:01:00.234Z,98.80
2023-02-20T11:03:37.711Z,97.50
2023-02-20T11:06:08.320Z,96.80
2023-02-20T11:08:36.280Z,96.00
2023-02-20T11:11:22.326Z,95.70
2023-02-20T11:13:50.334Z,94.60
2023-02-20T11:16:25.229Z,95.00
2023-02-20T11:19:05.872Z,94.70
2023-02-20T11:21:40.216Z,94.40
2023-02-20T11:24:37.339Z,92.90
2023-02-20T11:27:11.888Z,92.70
2023-02-20T11:29:47.402Z,93.40
2023-02-20T11:32:34.614Z,93.20
2023-02-20T11:35:26.764Z,93.30
2023-02-20T11:38:28.125Z,92.70
2023-02-20T11:41:19.090Z,91.90
2023-02-20T11:44:01.016Z,91.20
2023-02-20T11:46:29.427Z,90.60
2023-02-20T11:49:05.322Z,90.20
2023-02-20T11:51:38.285Z,90.70
2023-02-20T11:54:17.370Z,91.10
2023-02-20T11:57:01.752Z,90.70
2023-02-20T11:59:33.162Z,90.80
2023-02-20T12:02:26.609Z,90.10
2023-02-20T12:05:11.645Z,90.00
2023-02-20T12:07:43.960Z,89.30
2023-02-20T12:10:22.453Z,88.70
2023-02-20T12:12:50.883Z,87.90
2023-02-20T12:15:22.100Z,87.00
2023-02-20T12:18:10.383Z,85.00
2023-02-20T12:20:44.328Z,82.90
2023-02-20T12:23:21.536Z,81.70
2023-02-20T12:26:04.422Z,80.80
2023-02-20T12:28:42.855Z,79.10
2023-02-20T12:31:22.508Z,77.50
2023-02-20T12:34:05.502Z,78.00
2023-02-20T12:36:37.856Z,78.40
2023-02-20T12:39:18.258Z,76.50
2023-02-20T12:41:57.089Z,77.40
2023-02-20T12:44:35.229Z,76.70
2023-02-20T12:47:16.666Z,74.60
2023-02-20T12:50:01.947Z,72.60
2023-02-20T12:52:53.785Z,73.30
2023-02-20T12:55:30.673Z,71.50
2023-02-20T12:58:09.756Z,70.90
2023-02-20T13:00:41.144Z,71.20
2023-02-20T13:03:16.007Z,71.50
2023-02-20T13:05:45.396Z,72.40
2023-02-20T13:08:17.241Z,74.40
2023-02-20T13:10:54.042Z,76.10
2023-02-20T13:13:23.447Z,77.30
2023-02-20T13:15:59.760Z,77.90
2023-02-20T13:18:38.076Z,76.00
2023-02-20T13:21:10.634Z,76.70
2023-02-20T13:23:41.838Z,76.50
2023-02-20T13:26:47.380Z,76.90
2023-02-20T13:29:16.852Z,76.70
2023-02-20T13:31:51.439Z,77.30
2023-02-20T13:34:38.064Z,78.20
2023-02-20T13:37:26.786Z,77.90
2023-02-20T13:39:55.359Z,76.00
2023-02-20T13:42:36.296Z,73.00
2023-02-20T13:45:42.443Z,71.30
2023-02-20T13:48:21.821Z,70.80
2023-02-20T13:50:49.836Z,69.70
2023-02-20T13:53:17.764Z,68.60
2023-02-20T13:55:45.733Z,68.10
2023-02-20T13:58:16.127Z,68.50
2023-02-20T14:00:52.217Z,68.80
2023-02-20T14:03:24.530Z,68.10
2023-02-20T14:06:08.503Z,66.40
2023-02-20T14:08:37.543Z,66.30
2023-02-20T14:11:08.082Z,66.30
2023-02-20T14:13:41.186Z,65.00
2023-02-20T14:19:06.829Z,63.90
2023-02-20T14:21:37.143Z,59.40
2023-02-20T14:24:19.471Z,57.90
2023-02-20T14:26:48.290Z,58.20
2023-02-20T14:29:24.316Z,58.70
2023-02-20T14:31:53.559Z,60.20
2023-02-20T14:34:31.258Z,60.70
2023-02-20T14:37:09.765Z,68.30
2023-02-20T14:39:55.471Z,74.10
2023-02-20T14:42:25.101Z,75.70
2023-02-20T14:45:00.738Z,74.80
2023-02-20T14:47:28.803Z,75.70
2023-02-20T14:50:10.410Z,73.60
2023-02-20T14:52:38.445Z,69.80
2023-02-20T14:55:07.809Z,66.90
2023-02-20T14:57:36.116Z,64.40
2023-02-20T15:00:12.617Z,62.90
2023-02-20T15:02:44.407Z,61.40
2023-02-20T15:05:20.052Z,59.30
2023-02-20T15:07:48.213Z,57.90
2023-02-20T15:10:38.580Z,57.20
2023-02-20T15:13:10.420Z,56.50
2023-02-20T15:15:39.771Z,54.90
2023-02-20T15:18:09.746Z,54.90
2023-02-20T15:20:41.701Z,54.00
2023-02-20T15:23:15.535Z,52.10
2023-02-20T15:25:45.481Z,50.90
2023-02-20T15:28:25.094Z,48.40
2023-02-20T15:31:17.141Z,47.50
2023-02-20T15:33:50.602Z,47.60
2023-02-20T15:36:23.043Z,49.50
2023-02-20T15:38:55.159Z,50.90
2023-02-20T15:41:23.650Z,51.20
2023-02-20T15:43:52.041Z,52.90
2023-02-20T15:46:21.172Z,54.00
2023-02-20T15:48:49.291Z,55.40
2023-02-20T15:51:21.707Z,56.10
2023-02-20T15:53:51.774Z,56.70
2023-02-20T15:56:20.513Z,57.30
2023-02-20T15:58:49.879Z,58.20
2023-02-20T16:01:17.935Z,58.90
2023-02-20T16:03:52.636Z,59.00
2023-02-20T16:06:23.540Z,60.00
2023-02-20T16:08:52.691Z,61.70
2023-02-20T16:11:23.663Z,63.20
2023-02-20T16:13:56.327Z,64.10
2023-02-20T16:16:30.335Z,64.60
2023-02-20T16:18:58.591Z,65.30
2023-02-20T16:21:28.167Z,65.90
2023-02-20T16:23:56.280Z,66.30
2023-02-20T16:26:27.595Z,67.30
2023-02-20T16:28:58.697Z,67.50
2023-02-20T16:32:06.664Z,67.20
2023-02-20T16:34:35.322Z,66.70
2023-02-20T16:37:04.618Z,66.70
2023-02-20T16:39:32.613Z,67.00
2023-02-20T16:42:00.828Z,67.80
2023-02-20T16:44:37.170Z,67.80
2023-02-20T16:47:05.773Z,69.00
2023-02-20T16:49:37.252Z,67.50
2023-02-20T16:52:19.462Z,66.80
2023-02-20T16:54:49.437Z,66.90
2023-02-20T16:57:21.452Z,67.00
2023-02-20T16:59:49.316Z,67.00
2023-02-20T17:02:18.737Z,67.30
2023-02-20T17:04:47.372Z,66.90
2023-02-20T17:07:17.534Z,67.40
2023-02-20T17:09:46.820Z,68.60
2023-02-20T17:12:17.127Z,70.10
2023-02-20T17:14:45.634Z,71.70
2023-02-20T17:17:13.956Z,73.30
2023-02-20T17:19:43.668Z,74.70
2023-02-20T17:22:12.473Z,74.20
2023-02-20T17:24:42.569Z,76.10
2023-02-20T17:27:11.582Z,77.10
2023-02-20T17:29:40.062Z,78.10
2023-02-20T17:32:08.377Z,79.00
2023-02-20T17:34:36.272Z,79.70
2023-02-20T17:37:04.191Z,80.60
2023-02-20T17:39:32.071Z,81.60
2023-02-20T17:42:01.648Z,82.30
2023-02-20T17:44:31.634Z,82.30
2023-02-20T17:47:01.174Z,84.10
2023-02-20T17:49:30.094Z,82.80
2023-02-20T17:52:00.183Z,81.90
2023-02-20T17:54:31.759Z,83.00
2023-02-20T17:57:01.929Z,82.80
2023-02-20T17:59:30.365Z,83.00
2023-02-20T18:01:59.356Z,82.90
2023-02-20T18:04:27.468Z,82.70
2023-02-20T18:06:55.490Z,83.20
2023-02-20T18:09:23.512Z,82.20
2023-02-20T18:11:51.878Z,82.50
2023-02-20T18:14:22.182Z,82.80
2023-02-20T18:16:50.529Z,84.40
2023-02-20T18:19:18.845Z,85.40
2023-02-20T18:21:49.261Z,88.10
2023-02-20T18:24:19.220Z,90.20
2023-02-20T18:26:47.628Z,91.10
2023-02-20T18:29:15.918Z,91.30
2023-02-20T18:31:45.361Z,91.90
2023-02-20T18:34:13.365Z,92.20
2023-02-20T18:36:41.779Z,92.80
2023-02-20T18:39:11.011Z,93.20
2023-02-20T18:41:38.903Z,93.40
2023-02-20T18:44:07.008Z,93.90
2023-02-20T18:46:36.390Z,94.30
2023-02-20T18:49:06.087Z,94.40
2023-02-20T18:51:36.274Z,94.40
2023-02-20T18:54:06.146Z,93.80
2023-02-20T18:56:36.106Z,94.60
2023-02-20T18:59:04.985Z,94.90
2023-02-20T19:01:33.941Z,94.40
2023-02-20T19:04:03.825Z,94.60
2023-02-20T19:06:37.001Z,95.00
2023-02-20T19:09:05.752Z,94.70
2023-02-20T19:11:33.714Z,95.40
2023-02-20T19:14:01.720Z,95.60
2023-02-20T19:16:29.680Z,95.90
2023-02-20T19:18:57.707Z,95.80
2023-02-20T19:21:25.684Z,96.00
2023-02-20T19:23:54.893Z,96.60
2023-02-20T19:26:22.937Z,96.60
2023-02-20T19:28:50.792Z,96.70
2023-02-20T19:31:18.726Z,97.10
2023-02-20T19:33:49.362Z,97.00
2023-02-20T19:36:17.297Z,98.40
2023-02-20T19:38:45.226Z,98.70
2023-02-20T19:41:16.046Z,98.50
2023-02-20T19:43:44.583Z,97.70
2023-02-20T19:46:15.789Z,97.70
2023-02-20T19:48:44.492Z,97.00
2023-02-20T19:51:13.145Z,96.90
2023-02-20T19:53:41.586Z,97.20
2023-02-20T19:56:09.810Z,97.20
2023-02-20T19:58:41.427Z,97.50
2023-02-20T20:01:14.993Z,97.70
2023-02-20T20:03:44.027Z,98.30
2023-02-20T20:06:12.723Z,99.10
2023-02-20T20:09:01.874Z,99.80
2023-02-20T20:11:29.148Z,99.90
2023-02-20T20:13:58.368Z,99.90
2023-02-20T20:16:26.577Z,99.90
2023-02-20T20:18:54.508Z,99.90
2023-02-20T20:21:22.850Z,99.90
2023-02-20T20:23:53.256Z,99.90
2023-02-20T20:26:25.276Z,99.90
2023-02-20T20:28:53.574Z,99.90
2023-02-20T20:31:28.777Z,99.90
2023-02-20T20:33:56.716Z,99.90
2023-02-20T20:36:24.577Z,99.90
2023-02-20T20:38:52.453Z,99.90
2023-02-20T20:41:20.313Z,99.90
2023-02-20T20:43:48.589Z,99.90
2023-02-20T20:46:17.230Z,99.90
2023-02-20T20:48:47.281Z,99.90
2023-02-20T20:51:19.744Z,99.90
2023-02-20T20:53:47.833Z,99.90
2023-02-20T20:56:15.702Z,99.90
2023-02-20T20:58:44.118Z,99.90
2023-02-20T21:01:12.451Z,99.90
2023-02-20T21:03:40.586Z,99.90
2023-02-20T21:06:09.936Z,99.90
2023-02-20T21:08:38.029Z,99.90
2023-02-20T21:11:06.093Z,99.90
2023-02-20T21:13:34.025Z,99.90
2023-02-20T21:16:02.250Z,99.90
2023-02-20T21:18:30.389Z,99.90
2023-02-20T21:20:58.356Z,99.90
2023-02-20T21:23:27.652Z,99.90
2023-02-20T21:25:55.622Z,99.90
2023-02-20T21:28:23.555Z,99.90
2023-02-20T21:30:51.524Z,99.90
2023-02-20T21:33:20.081Z,99.90
2023-02-20T21:35:48.396Z,99.90
2023-02-20T21:38:16.274Z,99.90
2023-02-20T21:40:45.503Z,99.90
2023-02-20T21:43:31.218Z,99.90
2023-02-20T21:45:59.258Z,99.90
2023-02-20T21:48:27.847Z,99.90
2023-02-20T21:50:55.985Z,99.90
2023-02-20T21:53:24.854Z,99.90
2023-02-20T21:55:54.307Z,99.90
2023-02-20T21:58:36.790Z,99.90
2023-02-20T22:01:03.632Z,99.90
2023-02-20T22:03:30.614Z,99.90
2023-02-20T22:05:57.402Z,99.90
2023-02-20T22:08:42.554Z,99.90
2023-02-20T22:11:29.297Z,99.90
2023-02-20T22:14:14.902Z,99.90
2023-02-20T22:17:00.411Z,99.90
2023-02-20T22:19:46.121Z,99.90
2023-02-20T22:22:31.552Z,99.90
2023-02-20T22:25:17.137Z,99.90
2023-02-20T22:28:04.854Z,99.90
2023-02-20T22:30:52.543Z,99.90
2023-02-20T22:33:39.549Z,99.90
2023-02-20T22:36:25.380Z,99.90
2023-02-20T22:39:11.011Z,99.90
2023-02-20T22:41:56.365Z,99.90
2023-02-20T22:44:43.978Z,99.90
2023-02-20T22:47:29.346Z,99.90
2023-02-20T22:50:15.003Z,99.90
2023-02-20T22:53:00.239Z,99.90
2023-02-20T22:55:45.865Z,99.90
2023-02-20T22:58:31.824Z,99.90
2023-02-20T23:01:18.762Z,99.90
2023-02-20T23:04:04.259Z,99.90
2023-02-20T23:06:49.868Z,99.90
2023-02-20T23:09:35.158Z,99.90
2023-02-20T23:12:20.804Z,99.90
2023-02-20T23:15:06.013Z,99.90
2023-02-20T23:17:52.948Z,99.90
2023-02-20T23:20:40.997Z,99.90
2023-02-20T23:23:27.569Z,99.90
2023-02-20T23:26:13.429Z,99.90
2023-02-20T23:28:58.930Z,99.90
2023-02-20T23:31:52.040Z,99.90
2023-02-20T23:34:39.198Z,99.90
2023-02-20T23:37:24.789Z,99.90
2023-02-20T23:40:11.687Z,99.90
2023-02-20T23:42:57.125Z,99.90
2023-02-20T23:45:43.829Z,99.90
2023-02-20T23:48:30.424Z,99.90
2023-02-20T23:51:17.126Z,99.90
2023-02-20T23:54:03.121Z,99.90
2023-02-20T23:56:48.618Z,99.90
2023-02-20T23:59:34.264Z,99.90
